Algodones, New Mexico
Current Conditions -  °F | °C
As of 12:52 PM on Thursday 23 Oct 2014 (Local Time) from KABQ Reporting Station
Few Clouds Few Clouds  
Wind Chill: 67°   Ceiling: Unl
Heat Index: 67°   Visibility: 10mi
Dew Point: 41°   Wind: 0mph
Humidity: 39%   Direction: NA
Pressure: 30.27"   Gusts: NA
Location:  35.38°N, 106.48°W
Report Text: KABQ 231852Z 00000KT 10SM FEW070 19/05 A3027 RMK AO2 SLP194 T01940050
Loading
Personal Weather Stations






























Interactive Weather Map New forecast layout! Learn more

10-Day Weather Forecast

Advertisements
Track Severe Weather on mobile